Time,TemperatureF,DewpointF,PressureIn,WindDirection,WindDirectionDegrees,WindSpeedMPH,WindSpeedGustMPH,Humidity,HourlyPrecipIn,Conditions,Clouds,dailyrainin,SoftwareType,DateUTC
2013-06-08 00:01:00,51.9,51.3,27.95,West,272,3.0,9.0,98,0.00,,,8.08,WUHU216DAVISWMX,2013-06-08 04:01:00,
2013-06-08 00:02:00,53.1,52.5,27.95,West,272,3.0,9.0,98,0.00,,,8.08,WUHU216DAVISWMX,2013-06-08 04:02:00,
2013-06-08 00:07:00,53.1,52.5,27.95,WNW,284,3.0,8.0,98,0.00,,,8.08,WUHU216DAVISWMX,2013-06-08 04:07:00,
2013-06-08 00:12:00,53.0,52.1,27.95,West,280,6.0,8.0,97,0.00,,,8.08,WUHU216DAVISWMX,2013-06-08 04:12:00,
2013-06-08 00:17:00,51.9,51.3,27.95,WNW,285,0.0,8.0,98,0.00,,,8.08,WUHU216DAVISWMX,2013-06-08 04:17:00,
2013-06-08 00:22:00,52.0,51.1,27.95,West,272,4.0,6.0,97,0.00,,,8.08,WUHU216DAVISWMX,2013-06-08 04:22:00,
2013-06-08 00:27:00,52.9,52.0,27.95,West,273,0.0,8.0,97,0.00,,,8.08,WUHU216DAVISWMX,2013-06-08 04:27:00,
2013-06-08 00:32:00,52.9,52.3,27.95,WNW,289,0.0,8.0,98,0.00,,,8.08,WUHU216DAVISWMX,2013-06-08 04:32:00,
2013-06-08 00:37:00,52.5,51.9,27.95,West,269,2.0,7.0,98,0.00,,,8.08,WUHU216DAVISWMX,2013-06-08 04:37:00,
2013-06-08 00:42:00,52.8,51.9,27.95,WNW,288,2.0,6.0,97,0.00,,,8.08,WUHU216DAVISWMX,2013-06-08 04:42:00,
2013-06-08 00:47:00,52.6,51.7,27.95,WNW,300,1.0,9.0,97,0.00,,,8.08,WUHU216DAVISWMX,2013-06-08 04:47:00,
2013-06-08 00:52:00,53.1,52.2,27.96,West,281,2.0,9.0,97,0.00,,,8.08,WUHU216DAVISWMX,2013-06-08 04:52:00,
2013-06-08 00:57:00,53.2,52.3,27.96,West,267,4.0,10.0,97,0.00,,,8.08,WUHU216DAVISWMX,2013-06-08 04:57:00,
2013-06-08 01:02:00,53.1,52.2,27.96,West,275,0.0,10.0,97,0.00,,,8.08,WUHU216DAVISWMX,2013-06-08 05:02:00,
2013-06-08 01:07:00,53.1,52.2,27.96,NW,305,3.0,8.0,97,0.00,,,8.08,WUHU216DAVISWMX,2013-06-08 05:07:00,
2013-06-08 01:12:00,53.0,52.1,27.96,WSW,258,3.0,8.0,97,0.00,,,8.08,WUHU216DAVISWMX,2013-06-08 05:12:00,
2013-06-08 01:17:00,52.9,52.3,27.96,WNW,286,3.0,7.0,98,0.00,,,8.08,WUHU216DAVISWMX,2013-06-08 05:17:00,
2013-06-08 01:22:00,52.4,51.5,27.96,West,279,0.0,7.0,97,0.00,,,8.08,WUHU216DAVISWMX,2013-06-08 05:22:00,
2013-06-08 01:27:00,52.0,51.1,27.96,West,277,4.0,7.0,97,0.00,,,8.08,WUHU216DAVISWMX,2013-06-08 05:27:00,
2013-06-08 01:32:00,52.0,51.1,27.96,WNW,287,0.0,7.0,97,0.00,,,8.08,WUHU216DAVISWMX,2013-06-08 05:32:00,
2013-06-08 01:37:00,51.5,50.6,27.96,WNW,282,6.0,9.0,97,0.00,,,8.08,WUHU216DAVISWMX,2013-06-08 05:37:00,
2013-06-08 01:42:00,50.6,49.7,27.96,NW,305,6.0,9.0,97,0.00,,,8.08,WUHU216DAVISWMX,2013-06-08 05:42:00,
2013-06-08 01:47:00,51.5,50.6,27.96,NW,304,5.0,11.0,97,0.00,,,8.08,WUHU216DAVISWMX,2013-06-08 05:47:00,
2013-06-08 01:52:00,51.3,50.4,27.96,WNW,289,10.0,11.0,97,0.00,,,8.08,WUHU216DAVISWMX,2013-06-08 05:52:00,
2013-06-08 01:57:00,51.2,50.3,27.96,West,279,5.0,10.0,97,0.00,,,8.08,WUHU216DAVISWMX,2013-06-08 05:57:00,
2013-06-08 02:02:00,50.7,49.8,27.96,West,281,7.0,10.0,97,0.00,,,8.08,WUHU216DAVISWMX,2013-06-08 06:02:00,
2013-06-08 02:07:00,50.9,50.0,27.96,NW,309,0.0,9.0,97,0.00,,,8.08,WUHU216DAVISWMX,2013-06-08 06:07:00,
2013-06-08 02:12:00,50.8,49.7,27.97,West,276,2.0,7.0,96,0.00,,,8.08,WUHU216DAVISWMX,2013-06-08 06:12:00,
2013-06-08 02:17:00,52.0,50.9,27.97,WNW,282,5.0,7.0,96,0.00,,,8.08,WUHU216DAVISWMX,2013-06-08 06:17:00,
2013-06-08 02:22:00,51.9,50.8,27.97,WNW,300,0.0,8.0,96,0.00,,,8.08,WUHU216DAVISWMX,2013-06-08 06:22:00,
2013-06-08 02:27:00,51.5,50.4,27.97,West,273,10.0,10.0,96,0.00,,,8.08,WUHU216DAVISWMX,2013-06-08 06:27:00,
2013-06-08 02:32:00,51.2,50.1,27.97,WNW,288,5.0,10.0,96,0.00,,,8.08,WUHU216DAVISWMX,2013-06-08 06:32:00,
2013-06-08 02:37:00,51.1,49.7,27.97,WNW,299,4.0,9.0,95,0.00,,,8.08,WUHU216DAVISWMX,2013-06-08 06:37:00,
2013-06-08 02:42:00,50.9,49.8,27.97,WNW,285,0.0,9.0,96,0.00,,,8.08,WUHU216DAVISWMX,2013-06-08 06:42:00,
2013-06-08 02:47:00,50.8,49.7,27.97,West,259,6.0,7.0,96,0.00,,,8.08,WUHU216DAVISWMX,2013-06-08 06:47:00,
2013-06-08 02:52:00,50.4,49.3,27.97,West,281,5.0,9.0,96,0.00,,,8.08,WUHU216DAVISWMX,2013-06-08 06:52:00,
2013-06-08 02:57:00,50.1,49.0,27.97,West,268,7.0,9.0,96,0.00,,,8.08,WUHU216DAVISWMX,2013-06-08 06:57:00,
2013-06-08 03:02:00,49.5,48.4,27.97,WNW,289,4.0,9.0,96,0.00,,,8.08,WUHU216DAVISWMX,2013-06-08 07:02:00,
2013-06-08 03:07:00,50.0,48.9,27.97,West,275,6.0,7.0,96,0.00,,,8.08,WUHU216DAVISWMX,2013-06-08 07:07:00,
2013-06-08 03:12:00,50.1,49.0,27.97,WNW,287,7.0,9.0,96,0.00,,,8.08,WUHU216DAVISWMX,2013-06-08 07:12:00,
2013-06-08 03:17:00,50.1,49.3,27.98,WNW,288,0.0,9.0,97,0.00,,,8.08,WUHU216DAVISWMX,2013-06-08 07:17:00,
2013-06-08 03:22:00,49.8,49.0,27.98,WNW,291,0.0,7.0,97,0.00,,,8.08,WUHU216DAVISWMX,2013-06-08 07:22:00,
2013-06-08 03:27:00,49.8,49.0,27.98,WNW,289,0.0,7.0,97,0.00,,,8.08,WUHU216DAVISWMX,2013-06-08 07:27:00,
2013-06-08 03:32:00,49.6,48.8,27.98,West,278,0.0,8.0,97,0.00,,,8.08,WUHU216DAVISWMX,2013-06-08 07:32:00,
2013-06-08 03:37:00,48.1,47.3,27.98,West,279,0.0,8.0,97,0.00,,,8.08,WUHU216DAVISWMX,2013-06-08 07:37:00,
2013-06-08 03:42:00,47.9,47.1,27.98,WNW,283,0.0,7.0,97,0.01,,,8.09,WUHU216DAVISWMX,2013-06-08 07:42:00,
2013-06-08 03:47:00,48.1,47.3,27.98,WNW,293,0.0,7.0,97,0.01,,,8.09,WUHU216DAVISWMX,2013-06-08 07:47:00,
2013-06-08 03:52:00,49.0,48.2,27.98,West,276,0.0,7.0,97,0.01,,,8.09,WUHU216DAVISWMX,2013-06-08 07:52:00,
2013-06-08 03:57:00,48.4,47.8,27.98,WNW,284,0.0,9.0,98,0.01,,,8.09,WUHU216DAVISWMX,2013-06-08 07:57:00,
2013-06-08 04:02:00,48.3,47.7,27.98,WNW,301,0.0,9.0,98,0.01,,,8.09,WUHU216DAVISWMX,2013-06-08 08:02:00,
2013-06-08 04:07:00,48.5,47.7,27.98,WNW,297,3.0,9.0,97,0.01,,,8.09,WUHU216DAVISWMX,2013-06-08 08:07:00,
2013-06-08 04:12:00,47.9,47.3,27.98,WNW,290,6.0,9.0,98,0.01,,,8.09,WUHU216DAVISWMX,2013-06-08 08:12:00,
2013-06-08 04:17:00,48.2,47.6,27.98,WNW,288,5.0,9.0,98,0.01,,,8.09,WUHU216DAVISWMX,2013-06-08 08:17:00,
2013-06-08 04:22:00,47.1,46.3,27.99,WNW,283,0.0,9.0,97,0.01,,,8.09,WUHU216DAVISWMX,2013-06-08 08:22:00,
2013-06-08 04:27:00,48.6,47.8,27.99,WNW,291,5.0,9.0,97,0.01,,,8.09,WUHU216DAVISWMX,2013-06-08 08:27:00,
2013-06-08 04:32:00,48.5,47.9,27.99,WNW,284,3.0,7.0,98,0.01,,,8.09,WUHU216DAVISWMX,2013-06-08 08:32:00,
2013-06-08 04:37:00,48.9,48.3,27.99,WNW,293,2.0,7.0,98,0.01,,,8.09,WUHU216DAVISWMX,2013-06-08 08:37:00,
2013-06-08 04:42:00,49.0,48.4,27.99,WNW,288,5.0,7.0,98,0.00,,,8.09,WUHU216DAVISWMX,2013-06-08 08:42:00,
2013-06-08 04:47:00,48.8,48.2,27.99,WNW,285,3.0,8.0,98,0.00,,,8.09,WUHU216DAVISWMX,2013-06-08 08:47:00,
2013-06-08 04:52:00,48.7,48.1,27.99,WNW,294,0.0,8.0,98,0.00,,,8.09,WUHU216DAVISWMX,2013-06-08 08:52:00,
2013-06-08 04:57:00,48.4,47.8,28.00,WNW,299,2.0,11.0,98,0.00,,,8.09,WUHU216DAVISWMX,2013-06-08 08:57:00,
2013-06-08 05:02:00,48.1,47.5,28.00,WNW,297,6.0,11.0,98,0.00,,,8.09,WUHU216DAVISWMX,2013-06-08 09:02:00,
2013-06-08 05:07:00,47.9,47.3,28.00,NW,317,4.0,9.0,98,0.00,,,8.09,WUHU216DAVISWMX,2013-06-08 09:07:00,
2013-06-08 05:12:00,48.3,47.7,28.00,WNW,290,3.0,9.0,98,0.00,,,8.09,WUHU216DAVISWMX,2013-06-08 09:12:00,
2013-06-08 05:17:00,48.6,48.0,28.00,West,277,3.0,9.0,98,0.00,,,8.09,WUHU216DAVISWMX,2013-06-08 09:17:00,
2013-06-08 05:22:00,48.9,48.3,28.00,WNW,294,6.0,8.0,98,0.00,,,8.09,WUHU216DAVISWMX,2013-06-08 09:22:00,
2013-06-08 05:27:00,48.9,48.3,28.01,WNW,292,6.0,8.0,98,0.00,,,8.09,WUHU216DAVISWMX,2013-06-08 09:27:00,
2013-06-08 05:32:00,48.9,48.3,28.01,WNW,295,3.0,7.0,98,0.00,,,8.09,WUHU216DAVISWMX,2013-06-08 09:32:00,
2013-06-08 05:37:00,49.0,48.4,28.01,WNW,287,4.0,9.0,98,0.00,,,8.09,WUHU216DAVISWMX,2013-06-08 09:37:00,
2013-06-08 05:42:00,48.9,48.3,28.01,WNW,299,1.0,9.0,98,0.00,,,8.09,WUHU216DAVISWMX,2013-06-08 09:42:00,
2013-06-08 05:47:00,49.0,48.4,28.01,West,275,0.0,7.0,98,0.00,,,8.09,WUHU216DAVISWMX,2013-06-08 09:47:00,
2013-06-08 05:52:00,48.9,48.3,28.02,West,278,4.0,7.0,98,0.00,,,8.09,WUHU216DAVISWMX,2013-06-08 09:52:00,
2013-06-08 05:57:00,48.9,48.6,28.02,WNW,282,0.0,7.0,99,0.00,,,8.09,WUHU216DAVISWMX,2013-06-08 09:57:00,
2013-06-08 06:02:00,49.0,48.4,28.02,West,269,0.0,8.0,98,0.00,,,8.09,WUHU216DAVISWMX,2013-06-08 10:02:00,
2013-06-08 06:07:00,49.1,48.5,28.02,West,266,0.0,8.0,98,0.00,,,8.09,WUHU216DAVISWMX,2013-06-08 10:07:00,
2013-06-08 06:12:00,49.1,48.8,28.02,West,279,0.0,7.0,99,0.00,,,8.09,WUHU216DAVISWMX,2013-06-08 10:12:00,
2013-06-08 06:17:00,49.1,48.5,28.02,WNW,297,0.0,7.0,98,0.00,,,8.09,WUHU216DAVISWMX,2013-06-08 10:17:00,
2013-06-08 06:22:00,49.1,48.5,28.03,West,277,1.0,7.0,98,0.00,,,8.09,WUHU216DAVISWMX,2013-06-08 10:22:00,
2013-06-08 06:27:00,49.1,48.5,28.03,West,274,0.0,7.0,98,0.00,,,8.09,WUHU216DAVISWMX,2013-06-08 10:27:00,
2013-06-08 06:32:00,49.1,48.5,28.03,WNW,297,2.0,7.0,98,0.00,,,8.09,WUHU216DAVISWMX,2013-06-08 10:32:00,
2013-06-08 06:37:00,49.1,48.5,28.03,West,270,0.0,9.0,98,0.00,,,8.09,WUHU216DAVISWMX,2013-06-08 10:37:00,
2013-06-08 06:42:00,49.0,48.4,28.03,West,277,0.0,9.0,98,0.00,,,8.09,WUHU216DAVISWMX,2013-06-08 10:42:00,
2013-06-08 06:47:00,49.1,48.5,28.03,West,277,0.0,9.0,98,0.00,,,8.09,WUHU216DAVISWMX,2013-06-08 10:47:00,
2013-06-08 06:52:00,49.1,48.5,28.03,WNW,287,7.0,7.0,98,0.00,,,8.09,WUHU216DAVISWMX,2013-06-08 10:52:00,
2013-06-08 06:57:00,49.0,48.4,28.03,WNW,286,2.0,8.0,98,0.00,,,8.09,WUHU216DAVISWMX,2013-06-08 10:57:00,
2013-06-08 07:02:00,49.0,48.7,28.04,West,276,0.0,8.0,99,0.00,,,8.09,WUHU216DAVISWMX,2013-06-08 11:02:00,
2013-06-08 07:07:00,49.1,48.5,28.03,West,280,0.0,7.0,98,0.00,,,8.09,WUHU216DAVISWMX,2013-06-08 11:07:00,
2013-06-08 07:12:00,49.2,48.9,28.03,West,278,0.0,5.0,99,0.00,,,8.09,WUHU216DAVISWMX,2013-06-08 11:12:00,
2013-06-08 07:17:00,49.1,48.5,28.03,WNW,293,0.0,5.0,98,0.00,,,8.09,WUHU216DAVISWMX,2013-06-08 11:17:00,
2013-06-08 07:22:00,49.1,48.5,28.03,WNW,293,3.0,7.0,98,0.00,,,8.09,WUHU216DAVISWMX,2013-06-08 11:22:00,
2013-06-08 07:27:00,49.2,48.6,28.04,West,267,0.0,7.0,98,0.00,,,8.09,WUHU216DAVISWMX,2013-06-08 11:27:00,
2013-06-08 07:32:00,49.2,48.6,28.05,West,267,0.0,7.0,98,0.00,,,8.09,WUHU216DAVISWMX,2013-06-08 11:32:00,
2013-06-08 07:37:00,49.3,48.7,28.05,WNW,287,6.0,6.0,98,0.00,,,8.09,WUHU216DAVISWMX,2013-06-08 11:37:00,
2013-06-08 07:42:00,49.1,48.8,28.05,West,263,4.0,6.0,99,0.00,,,8.09,WUHU216DAVISWMX,2013-06-08 11:42:00,
2013-06-08 07:47:00,49.1,48.5,28.05,West,271,0.0,10.0,98,0.00,,,8.09,WUHU216DAVISWMX,2013-06-08 11:47:00,
2013-06-08 07:52:00,49.0,48.7,28.05,WNW,283,3.0,10.0,99,0.00,,,8.09,WUHU216DAVISWMX,2013-06-08 11:52:00,
2013-06-08 07:57:00,49.0,48.4,28.05,WNW,287,0.0,9.0,98,0.00,,,8.09,WUHU216DAVISWMX,2013-06-08 11:57:00,
2013-06-08 08:02:00,48.9,48.6,28.06,WNW,298,4.0,7.0,99,0.00,,,8.09,WUHU216DAVISWMX,2013-06-08 12:02:00,
2013-06-08 08:07:00,48.9,48.6,28.06,West,278,5.0,6.0,99,0.00,,,8.09,WUHU216DAVISWMX,2013-06-08 12:07:00,
2013-06-08 08:12:00,48.8,48.2,28.07,WNW,293,7.0,7.0,98,0.00,,,8.09,WUHU216DAVISWMX,2013-06-08 12:12:00,
2013-06-08 08:17:00,48.9,48.6,28.07,WNW,282,3.0,7.0,99,0.00,,,8.09,WUHU216DAVISWMX,2013-06-08 12:17:00,
2013-06-08 08:22:00,48.9,48.6,28.07,WNW,288,5.0,6.0,99,0.00,,,8.09,WUHU216DAVISWMX,2013-06-08 12:22:00,
2013-06-08 08:27:00,48.7,48.7,28.07,WNW,285,9.0,9.0,100,0.00,,,8.09,WUHU216DAVISWMX,2013-06-08 12:27:00,
2013-06-08 08:32:00,48.7,48.7,28.08,WNW,302,4.0,9.0,100,0.00,,,8.09,WUHU216DAVISWMX,2013-06-08 12:32:00,
2013-06-08 08:37:00,48.7,48.4,28.08,West,271,0.0,9.0,99,0.00,,,8.09,WUHU216DAVISWMX,2013-06-08 12:37:00,
2013-06-08 08:42:00,48.7,48.4,28.08,NW,315,0.0,7.0,99,0.00,,,8.09,WUHU216DAVISWMX,2013-06-08 12:42:00,
2013-06-08 08:47:00,48.7,48.4,28.08,West,281,0.0,6.0,99,0.00,,,8.09,WUHU216DAVISWMX,2013-06-08 12:47:00,
2013-06-08 08:52:00,48.7,48.4,28.09,West,279,4.0,6.0,99,0.00,,,8.09,WUHU216DAVISWMX,2013-06-08 12:52:00,
2013-06-08 08:57:00,48.7,48.4,28.09,WNW,297,0.0,6.0,99,0.00,,,8.09,WUHU216DAVISWMX,2013-06-08 12:57:00,
2013-06-08 09:02:00,48.8,48.8,28.09,WNW,294,0.0,6.0,100,0.00,,,8.09,WUHU216DAVISWMX,2013-06-08 13:02:00,
2013-06-08 09:07:00,48.8,48.8,28.09,WNW,294,0.0,3.0,100,0.00,,,8.09,WUHU216DAVISWMX,2013-06-08 13:07:00,
2013-06-08 09:12:00,48.9,48.6,28.09,WNW,293,1.0,6.0,99,0.00,,,8.09,WUHU216DAVISWMX,2013-06-08 13:12:00,
2013-06-08 09:17:00,48.9,48.9,28.10,WNW,293,0.0,6.0,100,0.00,,,8.09,WUHU216DAVISWMX,2013-06-08 13:17:00,
2013-06-08 09:22:00,48.9,48.9,28.10,WNW,296,0.0,4.0,100,0.00,,,8.09,WUHU216DAVISWMX,2013-06-08 13:22:00,
2013-06-08 09:27:00,49.0,49.0,28.10,WNW,296,0.0,4.0,100,0.00,,,8.09,WUHU216DAVISWMX,2013-06-08 13:27:00,
2013-06-08 09:32:00,49.2,49.2,28.10,WNW,296,0.0,4.0,100,0.00,,,8.09,WUHU216DAVISWMX,2013-06-08 13:32:00,
2013-06-08 09:37:00,49.2,49.2,28.10,WNW,296,0.0,2.0,100,0.00,,,8.09,WUHU216DAVISWMX,2013-06-08 13:37:00,
2013-06-08 09:42:00,49.1,48.8,28.10,WNW,296,0.0,3.0,99,0.00,,,8.09,WUHU216DAVISWMX,2013-06-08 13:42:00,
2013-06-08 09:47:00,49.1,48.8,28.10,NW,304,0.0,4.0,99,0.00,,,8.09,WUHU216DAVISWMX,2013-06-08 13:47:00,
2013-06-08 09:52:00,49.1,49.1,28.10,WNW,302,2.0,5.0,100,0.00,,,8.09,WUHU216DAVISWMX,2013-06-08 13:52:00,
2013-06-08 09:57:00,49.2,49.2,28.10,WNW,297,0.0,5.0,100,0.00,,,8.09,WUHU216DAVISWMX,2013-06-08 13:57:00,
2013-06-08 10:02:00,49.2,48.9,28.10,WNW,296,5.0,5.0,99,0.00,,,8.09,WUHU216DAVISWMX,2013-06-08 14:02:00,
2013-06-08 10:07:00,49.3,49.3,28.10,WSW,252,0.0,5.0,100,0.00,,,8.09,WUHU216DAVISWMX,2013-06-08 14:07:00,
2013-06-08 10:12:00,49.4,49.1,28.10,WSW,252,0.0,4.0,99,0.00,,,8.09,WUHU216DAVISWMX,2013-06-08 14:12:00,
2013-06-08 10:17:00,49.9,49.9,28.10,WSW,252,0.0,3.0,100,0.00,,,8.09,WUHU216DAVISWMX,2013-06-08 14:17:00,
2013-06-08 10:22:00,49.9,49.6,28.11,West,281,0.0,6.0,99,0.00,,,8.09,WUHU216DAVISWMX,2013-06-08 14:22:00,
2013-06-08 10:27:00,50.0,49.7,28.11,West,277,4.0,6.0,99,0.00,,,8.09,WUHU216DAVISWMX,2013-06-08 14:27:00,
2013-06-08 10:32:00,50.2,49.6,28.11,West,259,0.0,6.0,98,0.00,,,8.09,WUHU216DAVISWMX,2013-06-08 14:32:00,
2013-06-08 10:37:00,50.5,49.9,28.11,West,261,0.0,3.0,98,0.00,,,8.09,WUHU216DAVISWMX,2013-06-08 14:37:00,
2013-06-08 10:42:00,50.6,50.0,28.11,West,273,0.0,4.0,98,0.00,,,8.09,WUHU216DAVISWMX,2013-06-08 14:42:00,
2013-06-08 10:47:00,50.6,50.0,28.10,WNW,298,3.0,7.0,98,0.00,,,8.09,WUHU216DAVISWMX,2013-06-08 14:47:00,
2013-06-08 10:52:00,50.9,50.0,28.10,WNW,294,4.0,8.0,97,0.00,,,8.09,WUHU216DAVISWMX,2013-06-08 14:52:00,
2013-06-08 10:57:00,50.9,50.0,28.10,WNW,290,0.0,8.0,97,0.00,,,8.09,WUHU216DAVISWMX,2013-06-08 14:57:00,
2013-06-08 11:02:00,51.1,50.0,28.10,WNW,295,3.0,7.0,96,0.00,,,8.09,WUHU216DAVISWMX,2013-06-08 15:02:00,
2013-06-08 11:07:00,51.3,50.2,28.11,WNW,289,7.0,7.0,96,0.00,,,8.09,WUHU216DAVISWMX,2013-06-08 15:07:00,
2013-06-08 11:12:00,51.3,49.9,28.11,WNW,299,0.0,7.0,95,0.00,,,8.09,WUHU216DAVISWMX,2013-06-08 15:12:00,
2013-06-08 11:17:00,51.4,49.7,28.11,NW,308,0.0,5.0,94,0.00,,,8.09,WUHU216DAVISWMX,2013-06-08 15:17:00,
2013-06-08 11:22:00,51.3,49.6,28.11,WNW,298,4.0,6.0,94,0.00,,,8.09,WUHU216DAVISWMX,2013-06-08 15:22:00,
2013-06-08 11:27:00,51.0,49.3,28.11,NW,308,1.0,7.0,94,0.00,,,8.09,WUHU216DAVISWMX,2013-06-08 15:27:00,
2013-06-08 11:32:00,50.6,48.6,28.12,WNW,300,5.0,9.0,93,0.00,,,8.09,WUHU216DAVISWMX,2013-06-08 15:32:00,
2013-06-08 11:37:00,51.5,49.5,28.12,WNW,288,7.0,10.0,93,0.00,,,8.09,WUHU216DAVISWMX,2013-06-08 15:37:00,
2013-06-08 11:42:00,51.5,49.2,28.12,NW,307,0.0,10.0,92,0.00,,,8.09,WUHU216DAVISWMX,2013-06-08 15:42:00,
2013-06-08 11:47:00,51.4,49.1,28.12,WNW,283,1.0,9.0,92,0.00,,,8.09,WUHU216DAVISWMX,2013-06-08 15:47:00,
2013-06-08 11:52:00,51.3,48.7,28.12,West,271,3.0,9.0,91,0.00,,,8.09,WUHU216DAVISWMX,2013-06-08 15:52:00,
2013-06-08 11:57:00,51.4,48.8,28.13,WNW,299,0.0,9.0,91,0.00,,,8.09,WUHU216DAVISWMX,2013-06-08 15:57:00,
2013-06-08 12:02:00,51.7,48.8,28.12,WSW,258,2.0,7.0,90,0.00,,,8.09,WUHU216DAVISWMX,2013-06-08 16:02:00,
2013-06-08 12:07:00,51.8,48.9,28.12,WNW,294,1.0,7.0,90,0.00,,,8.09,WUHU216DAVISWMX,2013-06-08 16:07:00,
2013-06-08 12:12:00,51.7,48.2,28.12,NW,312,4.0,11.0,88,0.00,,,8.09,WUHU216DAVISWMX,2013-06-08 16:12:00,
2013-06-08 12:17:00,52.0,48.5,28.12,WNW,298,0.0,11.0,88,0.00,,,8.09,WUHU216DAVISWMX,2013-06-08 16:17:00,
2013-06-08 12:22:00,52.2,48.4,28.12,WNW,292,5.0,11.0,87,0.00,,,8.09,WUHU216DAVISWMX,2013-06-08 16:22:00,
2013-06-08 12:27:00,52.5,48.7,28.13,WNW,293,4.0,7.0,87,0.00,,,8.09,WUHU216DAVISWMX,2013-06-08 16:27:00,
2013-06-08 12:32:00,52.7,48.6,28.12,West,280,5.0,7.0,86,0.00,,,8.09,WUHU216DAVISWMX,2013-06-08 16:32:00,
2013-06-08 12:37:00,53.0,48.6,28.12,West,280,4.0,10.0,85,0.00,,,8.09,WUHU216DAVISWMX,2013-06-08 16:37:00,
2013-06-08 12:42:00,53.1,48.4,28.12,West,272,0.0,10.0,84,0.00,,,8.09,WUHU216DAVISWMX,2013-06-08 16:42:00,
2013-06-08 12:47:00,53.4,48.4,28.12,West,276,11.0,11.0,83,0.00,,,8.09,WUHU216DAVISWMX,2013-06-08 16:47:00,
2013-06-08 12:52:00,53.9,48.9,28.12,WSW,258,4.0,11.0,83,0.00,,,8.09,WUHU216DAVISWMX,2013-06-08 16:52:00,
2013-06-08 12:57:00,54.2,48.8,28.11,WSW,251,0.0,11.0,82,0.00,,,8.09,WUHU216DAVISWMX,2013-06-08 16:57:00,
2013-06-08 13:02:00,55.1,49.4,28.12,WNW,292,3.0,11.0,81,0.00,,,8.09,WUHU216DAVISWMX,2013-06-08 17:02:00,
2013-06-08 13:07:00,55.2,49.2,28.12,WNW,295,0.0,10.0,80,0.00,,,8.09,WUHU216DAVISWMX,2013-06-08 17:07:00,
2013-06-08 13:12:00,55.8,50.4,28.12,SW,226,4.0,10.0,82,0.00,,,8.09,WUHU216DAVISWMX,2013-06-08 17:12:00,
2013-06-08 13:17:00,56.4,49.7,28.11,West,280,6.0,10.0,78,0.00,,,8.09,WUHU216DAVISWMX,2013-06-08 17:17:00,
2013-06-08 13:22:00,56.6,49.2,28.12,WNW,284,0.0,10.0,76,0.00,,,8.09,WUHU216DAVISWMX,2013-06-08 17:22:00,
2013-06-08 13:27:00,57.1,50.4,28.11,West,281,5.0,10.0,78,0.00,,,8.09,WUHU216DAVISWMX,2013-06-08 17:27:00,
2013-06-08 13:32:00,56.7,49.3,28.11,West,273,7.0,11.0,76,0.00,,,8.09,WUHU216DAVISWMX,2013-06-08 17:32:00,
2013-06-08 13:37:00,56.7,49.0,28.12,WNW,296,0.0,11.0,75,0.00,,,8.09,WUHU216DAVISWMX,2013-06-08 17:37:00,
2013-06-08 13:42:00,56.4,49.0,28.12,West,271,9.0,9.0,76,0.00,,,8.09,WUHU216DAVISWMX,2013-06-08 17:42:00,
2013-06-08 13:47:00,56.3,48.6,28.12,NW,309,9.0,11.0,75,0.00,,,8.09,WUHU216DAVISWMX,2013-06-08 17:47:00,
2013-06-08 13:52:00,56.1,48.4,28.11,West,263,4.0,11.0,75,0.00,,,8.09,WUHU216DAVISWMX,2013-06-08 17:52:00,
2013-06-08 13:57:00,56.5,48.4,28.12,NW,305,4.0,12.0,74,0.00,,,8.09,WUHU216DAVISWMX,2013-06-08 17:57:00,
2013-06-08 14:02:00,57.2,49.1,28.11,West,276,8.0,12.0,74,0.00,,,8.09,WUHU216DAVISWMX,2013-06-08 18:02:00,
2013-06-08 14:07:00,56.8,48.7,28.12,NW,308,2.0,12.0,74,0.00,,,8.09,WUHU216DAVISWMX,2013-06-08 18:07:00,
2013-06-08 14:12:00,56.3,47.9,28.12,WSW,257,2.0,10.0,73,0.00,,,8.09,WUHU216DAVISWMX,2013-06-08 18:12:00,
2013-06-08 14:17:00,56.5,48.8,28.12,West,274,3.0,10.0,75,0.00,,,8.09,WUHU216DAVISWMX,2013-06-08 18:17:00,
2013-06-08 14:22:00,56.9,48.4,28.12,WNW,286,5.0,13.0,73,0.00,,,8.09,WUHU216DAVISWMX,2013-06-08 18:22:00,
2013-06-08 14:27:00,56.8,48.3,28.12,NW,321,1.0,13.0,73,0.00,,,8.09,WUHU216DAVISWMX,2013-06-08 18:27:00,
2013-06-08 14:32:00,56.2,47.8,28.12,West,279,7.0,12.0,73,0.00,,,8.09,WUHU216DAVISWMX,2013-06-08 18:32:00,
2013-06-08 14:37:00,57.2,48.7,28.12,NW,309,0.0,12.0,73,0.00,,,8.09,WUHU216DAVISWMX,2013-06-08 18:37:00,
2013-06-08 14:42:00,57.7,48.9,28.12,West,274,6.0,11.0,72,0.00,,,8.09,WUHU216DAVISWMX,2013-06-08 18:42:00,
2013-06-08 14:47:00,57.5,48.7,28.12,West,280,13.0,13.0,72,0.00,,,8.09,WUHU216DAVISWMX,2013-06-08 18:47:00,
2013-06-08 14:52:00,57.8,48.9,28.13,West,272,7.0,14.0,72,0.00,,,8.09,WUHU216DAVISWMX,2013-06-08 18:52:00,
2013-06-08 14:57:00,58.0,49.1,28.13,West,268,0.0,14.0,72,0.00,,,8.09,WUHU216DAVISWMX,2013-06-08 18:57:00,
2013-06-08 15:02:00,58.4,49.9,28.12,West,281,9.0,9.0,73,0.00,,,8.09,WUHU216DAVISWMX,2013-06-08 19:02:00,
2013-06-08 15:07:00,58.5,48.9,28.13,West,274,6.0,12.0,70,0.00,,,8.09,WUHU216DAVISWMX,2013-06-08 19:07:00,
2013-06-08 15:12:00,58.6,49.7,28.13,West,269,8.0,12.0,72,0.00,,,8.09,WUHU216DAVISWMX,2013-06-08 19:12:00,
2013-06-08 15:17:00,59.2,49.9,28.13,West,280,11.0,12.0,71,0.00,,,8.09,WUHU216DAVISWMX,2013-06-08 19:17:00,
2013-06-08 15:22:00,58.7,49.4,28.12,West,273,11.0,12.0,71,0.00,,,8.09,WUHU216DAVISWMX,2013-06-08 19:22:00,
2013-06-08 15:27:00,58.4,48.8,28.12,WNW,288,7.0,12.0,70,0.00,,,8.09,WUHU216DAVISWMX,2013-06-08 19:27:00,
2013-06-08 15:32:00,58.6,49.0,28.12,WSW,242,3.0,13.0,70,0.00,,,8.09,WUHU216DAVISWMX,2013-06-08 19:32:00,
2013-06-08 15:37:00,58.8,49.2,28.12,West,273,0.0,13.0,70,0.00,,,8.09,WUHU216DAVISWMX,2013-06-08 19:37:00,
2013-06-08 15:42:00,58.7,48.7,28.12,NW,307,5.0,11.0,69,0.00,,,8.09,WUHU216DAVISWMX,2013-06-08 19:42:00,
2013-06-08 15:47:00,59.0,49.7,28.12,South,173,0.0,10.0,71,0.00,,,8.09,WUHU216DAVISWMX,2013-06-08 19:47:00,
2013-06-08 15:52:00,59.3,49.3,28.13,NNW,340,1.0,12.0,69,0.00,,,8.09,WUHU216DAVISWMX,2013-06-08 19:52:00,
2013-06-08 15:57:00,59.7,50.0,28.13,WNW,294,2.0,12.0,70,0.00,,,8.09,WUHU216DAVISWMX,2013-06-08 19:57:00,
2013-06-08 16:02:00,60.1,49.6,28.13,West,281,3.0,10.0,68,0.00,,,8.09,WUHU216DAVISWMX,2013-06-08 20:02:00,
2013-06-08 16:07:00,60.1,49.3,28.13,WSW,253,6.0,10.0,67,0.00,,,8.09,WUHU216DAVISWMX,2013-06-08 20:07:00,
2013-06-08 16:12:00,59.9,49.5,28.13,SW,223,1.0,10.0,68,0.00,,,8.09,WUHU216DAVISWMX,2013-06-08 20:12:00,
2013-06-08 16:17:00,59.8,49.4,28.13,WNW,285,1.0,10.0,68,0.00,,,8.09,WUHU216DAVISWMX,2013-06-08 20:17:00,
2013-06-08 16:22:00,59.7,49.3,28.13,NW,304,5.0,9.0,68,0.00,,,8.09,WUHU216DAVISWMX,2013-06-08 20:22:00,
2013-06-08 16:27:00,59.7,49.7,28.14,NW,320,0.0,10.0,69,0.00,,,8.09,WUHU216DAVISWMX,2013-06-08 20:27:00,
2013-06-08 16:32:00,60.1,50.0,28.13,NW,306,3.0,10.0,69,0.00,,,8.09,WUHU216DAVISWMX,2013-06-08 20:32:00,
2013-06-08 16:37:00,59.9,49.5,28.14,NW,314,2.0,8.0,68,0.00,,,8.09,WUHU216DAVISWMX,2013-06-08 20:37:00,
2013-06-08 16:42:00,59.8,49.7,28.14,West,268,9.0,9.0,69,0.00,,,8.09,WUHU216DAVISWMX,2013-06-08 20:42:00,
2013-06-08 16:47:00,59.5,49.5,28.14,WNW,291,0.0,12.0,69,0.00,,,8.09,WUHU216DAVISWMX,2013-06-08 20:47:00,
2013-06-08 16:52:00,59.3,49.3,28.15,West,268,5.0,12.0,69,0.00,,,8.09,WUHU216DAVISWMX,2013-06-08 20:52:00,
2013-06-08 16:57:00,59.0,49.0,28.15,West,271,0.0,9.0,69,0.00,,,8.09,WUHU216DAVISWMX,2013-06-08 20:57:00,
2013-06-08 17:02:00,58.9,48.9,28.14,West,280,7.0,9.0,69,0.00,,,8.09,WUHU216DAVISWMX,2013-06-08 21:02:00,
2013-06-08 17:07:00,58.8,49.2,28.14,WNW,297,2.0,9.0,70,0.00,,,8.09,WUHU216DAVISWMX,2013-06-08 21:07:00,
2013-06-08 17:12:00,59.3,49.6,28.15,NW,318,0.0,8.0,70,0.00,,,8.09,WUHU216DAVISWMX,2013-06-08 21:12:00,
2013-06-08 17:18:00,59.4,49.7,28.15,West,269,0.0,6.0,70,0.00,,,8.09,WUHU216DAVISWMX,2013-06-08 21:18:00,
2013-06-08 17:23:00,59.5,49.5,28.14,West,278,0.0,6.0,69,0.00,,,8.09,WUHU216DAVISWMX,2013-06-08 21:23:00,
2013-06-08 17:28:00,59.5,49.5,28.15,West,262,6.0,6.0,69,0.00,,,8.09,WUHU216DAVISWMX,2013-06-08 21:28:00,
2013-06-08 17:33:00,59.5,49.5,28.15,West,274,5.0,8.0,69,0.00,,,8.09,WUHU216DAVISWMX,2013-06-08 21:33:00,
2013-06-08 17:38:00,59.5,49.5,28.15,WNW,283,4.0,8.0,69,0.00,,,8.09,WUHU216DAVISWMX,2013-06-08 21:38:00,
2013-06-08 17:43:00,60.1,50.0,28.15,WNW,285,7.0,10.0,69,0.00,,,8.09,WUHU216DAVISWMX,2013-06-08 21:43:00,
2013-06-08 17:48:00,59.9,49.5,28.14,WNW,302,0.0,10.0,68,0.00,,,8.09,WUHU216DAVISWMX,2013-06-08 21:48:00,
2013-06-08 17:53:00,59.5,49.1,28.14,WSW,253,0.0,10.0,68,0.00,,,8.09,WUHU216DAVISWMX,2013-06-08 21:53:00,
2013-06-08 17:58:00,59.8,49.7,28.15,West,272,0.0,6.0,69,0.00,,,8.09,WUHU216DAVISWMX,2013-06-08 21:58:00,
2013-06-08 18:03:00,60.3,50.2,28.15,WNW,294,6.0,6.0,69,0.00,,,8.09,WUHU216DAVISWMX,2013-06-08 22:03:00,
2013-06-08 18:08:00,60.4,50.3,28.15,WNW,291,3.0,7.0,69,0.00,,,8.09,WUHU216DAVISWMX,2013-06-08 22:08:00,
2013-06-08 18:13:00,60.3,49.8,28.15,WNW,286,5.0,8.0,68,0.00,,,8.09,WUHU216DAVISWMX,2013-06-08 22:13:00,
2013-06-08 18:18:00,60.0,49.6,28.15,SW,233,0.0,8.0,68,0.00,,,8.09,WUHU216DAVISWMX,2013-06-08 22:18:00,
2013-06-08 18:23:00,60.3,50.2,28.15,SW,217,3.0,6.0,69,0.00,,,8.09,WUHU216DAVISWMX,2013-06-08 22:23:00,
2013-06-08 18:28:00,60.3,49.8,28.16,SW,234,0.0,9.0,68,0.00,,,8.09,WUHU216DAVISWMX,2013-06-08 22:28:00,
2013-06-08 18:33:00,60.3,49.8,28.16,SW,233,2.0,9.0,68,0.00,,,8.09,WUHU216DAVISWMX,2013-06-08 22:33:00,
2013-06-08 18:38:00,60.3,50.2,28.16,WNW,285,10.0,10.0,69,0.00,,,8.09,WUHU216DAVISWMX,2013-06-08 22:38:00,
2013-06-08 18:43:00,60.2,49.7,28.16,WNW,289,0.0,10.0,68,0.00,,,8.09,WUHU216DAVISWMX,2013-06-08 22:43:00,
2013-06-08 18:48:00,60.2,50.1,28.16,West,275,1.0,8.0,69,0.00,,,8.09,WUHU216DAVISWMX,2013-06-08 22:48:00,
2013-06-08 18:53:00,60.0,50.3,28.16,West,275,4.0,7.0,70,0.00,,,8.09,WUHU216DAVISWMX,2013-06-08 22:53:00,
2013-06-08 18:58:00,59.9,50.2,28.16,WNW,291,0.0,7.0,70,0.00,,,8.09,WUHU216DAVISWMX,2013-06-08 22:58:00,
2013-06-08 19:03:00,59.6,50.3,28.16,WNW,289,0.0,6.0,71,0.00,,,8.09,WUHU216DAVISWMX,2013-06-08 23:03:00,
2013-06-08 19:08:00,59.6,50.3,28.16,West,280,3.0,5.0,71,0.00,,,8.09,WUHU216DAVISWMX,2013-06-08 23:08:00,
2013-06-08 19:13:00,59.4,49.7,28.16,West,281,5.0,7.0,70,0.00,,,8.09,WUHU216DAVISWMX,2013-06-08 23:13:00,
2013-06-08 19:18:00,59.3,50.0,28.16,West,274,0.0,7.0,71,0.00,,,8.09,WUHU216DAVISWMX,2013-06-08 23:18:00,
2013-06-08 19:23:00,59.4,50.1,28.16,West,277,0.0,7.0,71,0.00,,,8.09,WUHU216DAVISWMX,2013-06-08 23:23:00,
2013-06-08 19:28:00,59.6,50.3,28.17,West,281,0.0,5.0,71,0.00,,,8.09,WUHU216DAVISWMX,2013-06-08 23:28:00,
2013-06-08 19:33:00,59.5,50.2,28.16,West,281,0.0,4.0,71,0.00,,,8.09,WUHU216DAVISWMX,2013-06-08 23:33:00,
2013-06-08 19:38:00,59.5,50.2,28.17,West,281,0.0,3.0,71,0.00,,,8.09,WUHU216DAVISWMX,2013-06-08 23:38:00,
2013-06-08 19:43:00,59.4,50.1,28.17,WNW,288,0.0,3.0,71,0.00,,,8.09,WUHU216DAVISWMX,2013-06-08 23:43:00,
2013-06-08 19:48:00,59.3,50.8,28.17,WNW,284,0.0,3.0,73,0.00,,,8.09,WUHU216DAVISWMX,2013-06-08 23:48:00,
2013-06-08 19:53:00,59.3,51.1,28.17,WNW,283,0.0,0.0,74,0.00,,,8.09,WUHU216DAVISWMX,2013-06-08 23:53:00,
2013-06-08 19:58:00,59.2,51.7,28.17,WNW,283,0.0,0.0,76,0.00,,,8.09,WUHU216DAVISWMX,2013-06-08 23:58:00,
2013-06-08 20:03:00,59.1,51.3,28.17,WNW,283,0.0,0.0,75,0.00,,,8.09,WUHU216DAVISWMX,2013-06-09 00:03:00,
2013-06-08 20:08:00,58.8,51.0,28.18,WNW,283,0.0,0.0,75,0.00,,,8.09,WUHU216DAVISWMX,2013-06-09 00:08:00,
2013-06-08 20:13:00,58.4,50.6,28.17,WNW,283,0.0,0.0,75,0.00,,,8.09,WUHU216DAVISWMX,2013-06-09 00:13:00,
2013-06-08 20:18:00,58.2,51.1,28.17,WNW,283,0.0,0.0,77,0.00,,,8.09,WUHU216DAVISWMX,2013-06-09 00:18:00,
2013-06-08 20:23:00,57.9,51.2,28.17,WNW,283,0.0,0.0,78,0.00,,,8.09,WUHU216DAVISWMX,2013-06-09 00:23:00,
2013-06-08 20:28:00,57.5,50.8,28.17,WNW,283,0.0,0.0,78,0.00,,,8.09,WUHU216DAVISWMX,2013-06-09 00:28:00,
2013-06-08 20:33:00,57.2,50.8,28.17,WNW,283,0.0,0.0,79,0.00,,,8.09,WUHU216DAVISWMX,2013-06-09 00:33:00,
2013-06-08 20:38:00,56.7,50.6,28.17,WNW,283,0.0,0.0,80,0.00,,,8.09,WUHU216DAVISWMX,2013-06-09 00:38:00,
2013-06-08 20:43:00,55.9,50.2,28.17,WNW,283,0.0,0.0,81,0.00,,,8.09,WUHU216DAVISWMX,2013-06-09 00:43:00,
2013-06-08 20:48:00,55.7,50.3,28.17,WNW,283,0.0,0.0,82,0.00,,,8.09,WUHU216DAVISWMX,2013-06-09 00:48:00,
2013-06-08 20:53:00,55.3,50.2,28.18,WNW,283,0.0,0.0,83,0.00,,,8.09,WUHU216DAVISWMX,2013-06-09 00:53:00,
2013-06-08 20:58:00,55.2,50.5,28.18,WNW,283,0.0,0.0,84,0.00,,,8.09,WUHU216DAVISWMX,2013-06-09 00:58:00,
2013-06-08 21:03:00,54.8,50.4,28.18,WNW,283,0.0,0.0,85,0.00,,,8.09,WUHU216DAVISWMX,2013-06-09 01:03:00,
2013-06-08 21:08:00,54.5,50.4,28.18,WNW,283,0.0,0.0,86,0.00,,,8.09,WUHU216DAVISWMX,2013-06-09 01:08:00,
2013-06-08 21:13:00,54.1,50.6,28.19,WNW,283,0.0,0.0,88,0.00,,,8.09,WUHU216DAVISWMX,2013-06-09 01:13:00,
2013-06-08 21:18:00,53.7,50.5,28.19,WNW,283,0.0,0.0,89,0.00,,,8.09,WUHU216DAVISWMX,2013-06-09 01:18:00,
2013-06-08 21:23:00,53.2,50.3,28.19,WNW,284,0.0,0.0,90,0.00,,,8.09,WUHU216DAVISWMX,2013-06-09 01:23:00,
2013-06-08 21:28:00,52.8,50.2,28.19,WNW,284,0.0,0.0,91,0.00,,,8.09,WUHU216DAVISWMX,2013-06-09 01:28:00,
2013-06-08 21:33:00,52.5,50.2,28.20,WNW,283,2.0,2.0,92,0.00,,,8.09,WUHU216DAVISWMX,2013-06-09 01:33:00,
2013-06-08 21:38:00,52.3,50.0,28.20,WSW,253,0.0,2.0,92,0.00,,,8.09,WUHU216DAVISWMX,2013-06-09 01:38:00,
2013-06-08 21:43:00,52.0,50.0,28.21,WSW,251,0.0,3.0,93,0.00,,,8.09,WUHU216DAVISWMX,2013-06-09 01:43:00,
2013-06-08 21:48:00,51.8,50.1,28.21,WSW,251,0.0,3.0,94,0.00,,,8.09,WUHU216DAVISWMX,2013-06-09 01:48:00,
2013-06-08 21:53:00,51.7,50.0,28.21,WSW,251,0.0,0.0,94,0.00,,,8.09,WUHU216DAVISWMX,2013-06-09 01:53:00,
2013-06-08 21:58:00,51.4,49.7,28.21,WSW,251,0.0,0.0,94,0.00,,,8.09,WUHU216DAVISWMX,2013-06-09 01:58:00,
2013-06-08 22:03:00,51.3,49.9,28.21,WSW,250,0.0,0.0,95,0.00,,,8.09,WUHU216DAVISWMX,2013-06-09 02:03:00,
2013-06-08 22:08:00,51.2,49.8,28.22,WSW,251,0.0,0.0,95,0.00,,,8.09,WUHU216DAVISWMX,2013-06-09 02:08:00,
2013-06-08 22:13:00,51.0,49.6,28.22,WSW,251,0.0,1.0,95,0.00,,,8.09,WUHU216DAVISWMX,2013-06-09 02:13:00,
2013-06-08 22:18:00,50.8,49.4,28.22,WSW,251,0.0,1.0,95,0.00,,,8.09,WUHU216DAVISWMX,2013-06-09 02:18:00,
2013-06-08 22:23:00,50.7,49.3,28.22,WSW,251,0.0,0.0,95,0.00,,,8.09,WUHU216DAVISWMX,2013-06-09 02:23:00,
2013-06-08 22:28:00,50.6,49.5,28.22,WSW,251,0.0,0.0,96,0.00,,,8.09,WUHU216DAVISWMX,2013-06-09 02:28:00,
2013-06-08 22:33:00,50.4,49.3,28.23,WSW,251,0.0,0.0,96,0.00,,,8.09,WUHU216DAVISWMX,2013-06-09 02:33:00,
2013-06-08 22:38:00,50.3,49.2,28.23,WSW,251,0.0,0.0,96,0.00,,,8.09,WUHU216DAVISWMX,2013-06-09 02:38:00,
2013-06-08 22:43:00,49.9,48.8,28.23,WSW,251,0.0,0.0,96,0.00,,,8.09,WUHU216DAVISWMX,2013-06-09 02:43:00,
2013-06-08 22:48:00,50.0,48.9,28.23,WSW,251,0.0,0.0,96,0.00,,,8.09,WUHU216DAVISWMX,2013-06-09 02:48:00,
2013-06-08 22:53:00,49.8,48.7,28.23,WSW,251,0.0,0.0,96,0.00,,,8.09,WUHU216DAVISWMX,2013-06-09 02:53:00,
2013-06-08 22:58:00,49.6,48.5,28.24,WSW,251,0.0,0.0,96,0.00,,,8.09,WUHU216DAVISWMX,2013-06-09 02:58:00,
2013-06-08 23:03:00,49.4,48.3,28.23,WSW,251,0.0,0.0,96,0.00,,,8.09,WUHU216DAVISWMX,2013-06-09 03:03:00,
2013-06-08 23:08:00,49.2,48.4,28.23,WSW,251,0.0,0.0,97,0.00,,,8.09,WUHU216DAVISWMX,2013-06-09 03:08:00,
2013-06-08 23:13:00,49.2,48.4,28.24,WSW,251,0.0,0.0,97,0.00,,,8.09,WUHU216DAVISWMX,2013-06-09 03:13:00,
2013-06-08 23:18:00,49.0,48.2,28.24,WSW,251,0.0,0.0,97,0.00,,,8.09,WUHU216DAVISWMX,2013-06-09 03:18:00,
2013-06-08 23:23:00,48.9,48.1,28.24,WSW,251,0.0,0.0,97,0.00,,,8.09,WUHU216DAVISWMX,2013-06-09 03:23:00,
2013-06-08 23:28:00,48.8,48.2,28.24,WSW,251,0.0,0.0,98,0.00,,,8.09,WUHU216DAVISWMX,2013-06-09 03:28:00,
2013-06-08 23:33:00,48.7,48.1,28.24,WSW,251,0.0,0.0,98,0.00,,,8.09,WUHU216DAVISWMX,2013-06-09 03:33:00,
2013-06-08 23:38:00,48.7,48.1,28.24,WSW,251,0.0,0.0,98,0.00,,,8.09,WUHU216DAVISWMX,2013-06-09 03:38:00,
2013-06-08 23:43:00,48.5,47.7,28.24,WSW,251,0.0,0.0,97,0.00,,,8.09,WUHU216DAVISWMX,2013-06-09 03:43:00,
2013-06-08 23:48:00,48.3,47.7,28.24,WSW,251,0.0,0.0,98,0.00,,,8.09,WUHU216DAVISWMX,2013-06-09 03:48:00,
2013-06-08 23:53:00,48.2,47.4,28.24,WSW,251,0.0,0.0,97,0.00,,,8.09,WUHU216DAVISWMX,2013-06-09 03:53:00,
2013-06-08 23:58:00,48.2,47.6,28.24,WSW,251,0.0,0.0,98,0.00,,,8.09,WUHU216DAVISWMX,2013-06-09 03:58:00,